Monday, December 17, 2018, 5:18 AM EST
Back to Local

KFYJ, West Point, Middle Peninsula Regional Airport

Location: Shacklefords, VA, United States Lat: 37.521
Local Time: 5:18 AM EST (10:18 GMT) Lon: -76.764
Time Zone: US/Eastern Elev: 22 ft

Show me the last for .
Show Decoded

2018-12-17 04:55 METAR KFYJ 170955Z AUTO 26003KT 10SM CLR 02/02 A2993 RMK AO1 T00230023 =
2018-12-17 04:35 METAR KFYJ 170935Z AUTO 26004KT 10SM CLR 02/02 A2993 RMK AO1 T00220022 =
2018-12-17 04:15 METAR KFYJ 170915Z AUTO 26004KT 10SM CLR 03/03 A2994 RMK AO1 T00250025 =
2018-12-17 03:50 METAR KFYJ 170850Z AUTO 27004KT 10SM CLR 03/03 A2994 RMK AO1 T00310031 =
2018-12-17 03:35 METAR KFYJ 170835Z AUTO 25005KT 10SM CLR 03/03 A2995 RMK AO1 T00330032 =
2018-12-17 03:15 METAR KFYJ 170815Z AUTO 26006KT 10SM CLR 04/04 A2995 RMK AO1 T00360035 =
2018-12-17 02:55 METAR KFYJ 170755Z AUTO 26004KT 10SM CLR 04/04 A2994 RMK AO1 T00400035 =
2018-12-17 02:35 METAR KFYJ 170735Z AUTO 26005KT 10SM CLR 04/04 A2995 RMK AO1 T00430036 =
2018-12-17 02:10 METAR KFYJ 170710Z AUTO 26005KT 10SM BKN039 05/04 A2995 RMK AO1 T00520041 =
2018-12-17 01:55 METAR KFYJ 170655Z AUTO 25003KT 10SM OVC039 06/04 A2996 RMK AO1 T00560043 =
2018-12-17 01:35 METAR KFYJ 170635Z AUTO 27003KT 10SM OVC039 06/04 A2995 RMK AO1 T00560041 =
2018-12-17 01:10 METAR KFYJ 170610Z AUTO 26006KT 10SM OVC039 06/04 A2995 RMK AO1 T00550039 =
2018-12-17 00:55 METAR KFYJ 170555Z AUTO 00000KT 10SM OVC039 06/04 A2995 RMK AO1 T00560039 10065
                 20052 401140052 =
2018-12-17 00:35 METAR KFYJ 170535Z AUTO 30004KT 10SM OVC039 06/04 A2994 RMK AO1 T00560037 =
2018-12-17 00:10 METAR KFYJ 170510Z AUTO 30003KT 10SM OVC037 06/04 A2994 RMK AO1 T00580037 =
2018-12-16 23:50 METAR KFYJ 170450Z AUTO 28005KT 10SM OVC035 06/04 A2995 RMK AO1 T00590039 =
2018-12-16 23:35 METAR KFYJ 170435Z AUTO 28003KT 10SM OVC035 06/04 A2995 RMK AO1 T00610040 =
2018-12-16 23:15 METAR KFYJ 170415Z AUTO 29005KT 10SM OVC035 06/04 A2995 RMK AO1 T00600037 =
2018-12-16 22:50 METAR KFYJ 170350Z AUTO 28005KT 10SM OVC035 06/04 A2995 RMK AO1 T00580038 =
2018-12-16 22:35 METAR KFYJ 170335Z AUTO 00000KT 10SM OVC035 06/04 A2995 RMK AO1 T00570038 =
2018-12-16 22:15 METAR KFYJ 170315Z AUTO 29004KT 10SM OVC035 06/04 A2995 RMK AO1 T00560040 =
2018-12-16 21:55 METAR KFYJ 170255Z AUTO 30003KT 10SM OVC037 06/04 A2995 RMK AO1 T00550041 =
2018-12-16 21:35 METAR KFYJ 170235Z AUTO 30005KT 10SM BKN039 06/04 A2995 RMK AO1 T00550042 =
2018-12-16 21:15 METAR KFYJ 170215Z AUTO 30004KT 10SM CLR 05/04 A2994 RMK AO1 T00530040 =
2018-12-16 20:50 METAR KFYJ 170150Z AUTO 31005KT 10SM CLR 06/04 A2994 RMK AO1 T00550041 =
2018-12-16 20:35 METAR KFYJ 170135Z AUTO 30006KT 10SM SCT014 06/05 A2994 RMK AO1 T00560045 =
2018-12-16 20:15 METAR KFYJ 170115Z AUTO 30005KT 10SM BKN014 06/05 A2993 RMK AO1 T00590047 =
2018-12-16 19:55 METAR KFYJ 170055Z AUTO 30004KT 10SM OVC014 06/05 A2993 RMK AO1 T00610049 =
2018-12-16 19:35 METAR KFYJ 170035Z AUTO 31004KT 10SM OVC014 06/05 A2992 RMK AO1 T00620049 =
2018-12-16 19:15 METAR KFYJ 170015Z AUTO 31004KT 10SM OVC014 07/05 A2992 RMK AO1 T00650048 =
2018-12-16 18:55 METAR KFYJ 162355Z AUTO 33007KT 10SM OVC014 07/05 A2991 RMK AO1 T00650049 10090
                 20065 =
2018-12-16 18:35 METAR KFYJ 162335Z AUTO 30009G17KT 10SM OVC014 07/05 A2991 RMK AO1 T00660050 =
2018-12-16 18:15 METAR KFYJ 162315Z AUTO 30010G16KT 10SM OVC014 07/05 A2990 RMK AO1 T00700054 =
2018-12-16 17:55 METAR KFYJ 162255Z AUTO 30007KT 10SM OVC012 07/06 A2989 RMK AO1 T00700056 =
2018-12-16 17:30 METAR KFYJ 162230Z AUTO 29008G15KT 10SM OVC010 07/06 A2988 RMK AO1 T00700059 =
2018-12-16 17:15 METAR KFYJ 162215Z AUTO 31008G15KT 10SM OVC010 07/06 A2987 RMK AO1 T00710061 =
2018-12-16 16:55 METAR KFYJ 162155Z AUTO 31007KT 280V360 10SM OVC010 08/06 A2987 RMK AO1
                 T00750063 =
2018-12-16 16:35 METAR KFYJ 162135Z AUTO 30006G15KT 10SM OVC010 08/07 A2986 RMK AO1 T00770066 =
2018-12-16 16:15 METAR KFYJ 162115Z AUTO 29009KT 10SM OVC010 08/07 A2986 RMK AO1 T00800067 =
2018-12-16 15:55 METAR KFYJ 162055Z AUTO 29007KT 10SM BKN010 OVC013 08/07 A2986 RMK AO1 T00800071
                 =
2018-12-16 15:30 METAR KFYJ 162030Z AUTO 28008KT 10SM BKN010 OVC016 09/08 A2984 RMK AO1 T00850075
                 =
2018-12-16 15:15 METAR KFYJ 162015Z AUTO 30008KT 10SM BKN010 OVC015 09/08 A2984 RMK AO1 T00850076
                 =
2018-12-16 14:50 METAR KFYJ 161950Z AUTO 31005KT 10SM SCT010 OVC016 09/08 A2983 RMK AO1 T00860075
                 =
2018-12-16 14:35 METAR KFYJ 161935Z AUTO 30005KT 10SM SCT010 BKN016 OVC022 09/08 A2982 RMK AO1
                 T00850077 =
2018-12-16 14:15 METAR KFYJ 161915Z AUTO 31005G14KT 10SM BKN014 OVC020 09/08 A2981 RMK AO1
                 T00870080 =
2018-12-16 13:55 METAR KFYJ 161855Z AUTO 30006KT 10SM BKN015 BKN022 OVC032 09/08 A2981 RMK AO1
                 T00880081 =
2018-12-16 13:35 METAR KFYJ 161835Z AUTO 30006KT 10SM SCT006 BKN010 OVC021 09/08 A2981 RMK AO1
                 T00870080 =
2018-12-16 13:15 METAR KFYJ 161815Z AUTO 30006KT 4SM OVC008 09/09 A2981 RMK AO1 T00870085 =
2018-12-16 12:55 METAR KFYJ 161755Z AUTO 27009KT 10SM OVC010 09/08 A2981 RMK AO1 T00900083 10114
                 20087 =
2018-12-16 12:35 METAR KFYJ 161735Z AUTO 27010KT 10SM OVC012 09/08 A2981 RMK AO1 T00930081 =
2018-12-16 12:10 METAR KFYJ 161710Z AUTO 27007KT 5SM OVC014 10/08 A2981 RMK AO1 T00950084 =
2018-12-16 11:50 METAR KFYJ 161650Z AUTO 26009KT 10SM OVC014 10/08 A2981 RMK AO1 T01010081 =
2018-12-16 11:35 METAR KFYJ 161635Z AUTO 26009KT 10SM OVC016 10/08 A2981 RMK AO1 T01010081 =
2018-12-16 11:12 METAR KFYJ 161612Z AUTO 26007KT 10SM BKN016 OVC023 10/08 A2983 RMK AO1 =
2018-12-16 10:35 METAR KFYJ 161535Z AUTO 22006KT 10SM CLR 11/09 A2985 RMK AO1 T01090085 =
2018-12-16 10:10 METAR KFYJ 161510Z AUTO 25007KT 10SM BKN010 BKN013 BKN025 09/08 A2986 RMK AO1
                 T00930084 =
2018-12-16 09:55 METAR KFYJ 161455Z AUTO 23006KT 10SM OVC013 09/08 A2987 RMK AO1 T00910081 =
2018-12-16 09:30 METAR KFYJ 161430Z AUTO 23009KT 10SM OVC013 09/08 A2988 RMK AO1 T00910082 =
2018-12-16 09:15 METAR KFYJ 161415Z AUTO 23006KT 10SM OVC012 09/08 A2987 RMK AO1 T00920084 =
2018-12-16 08:55 METAR KFYJ 161355Z AUTO 21005KT 10SM OVC011 09/08 A2987 RMK AO1 T00910084 =
2018-12-16 08:30 METAR KFYJ 161330Z AUTO 23004KT 10SM SCT011 SCT120 09/08 A2986 RMK AO1 T00920083
                 =
2018-12-16 08:10 METAR KFYJ 161310Z AUTO 23006KT 10SM BKN011 OVC120 09/08 A2987 RMK AO1 T00870080
                 =
2018-12-16 07:55 METAR KFYJ 161255Z AUTO 24009KT 10SM OVC009 09/08 A2987 RMK AO1 T00890080 =
2018-12-16 07:35 METAR KFYJ 161235Z AUTO 22008KT 10SM OVC009 09/08 A2986 RMK AO1 T00900081 =
2018-12-16 07:10 METAR KFYJ 161210Z AUTO 22007KT 10SM OVC009 09/09 A2986 RMK AO1 T00910085 =
2018-12-16 06:50 METAR KFYJ 161150Z AUTO 21005KT 10SM OVC007 09/09 A2987 RMK AO1 T00910088 10108
                 20090 =
2018-12-16 06:30 METAR KFYJ 161130Z AUTO 23004KT 10SM OVC007 10/09 A2986 RMK AO1 T00950090 =
2018-12-16 06:15 METAR KFYJ 161115Z AUTO 23004KT 10SM OVC007 10/09 A2987 RMK AO1 T00950091 =
2018-12-16 05:55 METAR KFYJ 161055Z AUTO 22006KT 10SM OVC007 10/09 A2986 RMK AO1 T00970093 =
2018-12-16 05:35 METAR KFYJ 161035Z AUTO 23005KT 10SM OVC007 10/10 A2987 RMK AO1 T01000096 =

Support USWX by starting your Amazon purchase here.